1875 NOT_NAMED (1875011S14076)


IBTrACS version v04r00. Visit IBTrACS website for data access.
Please direct all questions to the IBTrACS Q and A forum

Storm track - Intensity - Wind Radii - Intensity Data - Source Data - All data

Summary Information

Storm ID 1875011S14076
Start Jan 11 06Z
End Jan 20 06Z
ATCF IDs
Track status Best track data.

Storm track plot

Map of storm track

Intensity plots

No Intensity information for this storm


Radial wind information

No radial wind information for this storm


Position and Intensity Table

BASIN ISO_TIME_________ NATURE LAT LON
degrees north degrees east
SI 1875-01-11 06:00:00 NR -13.70 75.95
SI 09:00:00 NR -13.81 75.84
SI 12:00:00 NR -13.92 75.74
SI 15:00:00 NR -14.03 75.64
SI 18:00:00 NR -14.14 75.54
SI 21:00:00 NR -14.25 75.45
SI 1875-01-12 00:00:00 NR -14.35 75.37
SI 03:00:00 NR -14.46 75.28
SI 06:00:00 NR -14.55 75.20
SI 09:00:00 NR -14.63 75.12
SI 12:00:00 NR -14.69 75.04
SI 15:00:00 NR -14.76 74.96
SI 18:00:00 NR -14.83 74.87
SI 21:00:00 NR -14.92 74.78
SI 1875-01-13 00:00:00 NR -15.01 74.69
SI 03:00:00 NR -15.10 74.59
SI 06:00:00 NR -15.20 74.50
SI 09:00:00 NR -15.29 74.41
SI 12:00:00 NR -15.39 74.33
SI 15:00:00 NR -15.48 74.24
SI 18:00:00 NR -15.57 74.15
SI 21:00:00 NR -15.65 74.06
SI 1875-01-14 00:00:00 NR -15.74 73.97
SI 03:00:00 NR -15.84 73.87
SI 06:00:00 NR -15.95 73.75
SI 09:00:00 NR -16.08 73.62
SI 12:00:00 NR -16.23 73.47
SI 15:00:00 NR -16.39 73.31
SI 18:00:00 NR -16.56 73.16
SI 21:00:00 NR -16.73 73.01
SI 1875-01-15 00:00:00 NR -16.91 72.87
SI 03:00:00 NR -17.10 72.71
SI 06:00:00 NR -17.30 72.55
SI 09:00:00 NR -17.50 72.37
SI 12:00:00 NR -17.71 72.18
SI 15:00:00 NR -17.93 71.98
SI 18:00:00 NR -18.16 71.76
SI 21:00:00 NR -18.40 71.53
SI 1875-01-16 00:00:00 NR -18.66 71.30
SI 03:00:00 NR -18.91 71.07
SI 06:00:00 NR -19.15 70.85
SI 09:00:00 NR -19.38 70.66
SI 12:00:00 NR -19.61 70.48
SI 15:00:00 NR -19.83 70.31
SI 18:00:00 NR -20.04 70.15
SI 21:00:00 NR -20.24 69.98
SI 1875-01-17 00:00:00 NR -20.43 69.81
SI 03:00:00 NR -20.62 69.65
SI 06:00:00 NR -20.80 69.50
SI 09:00:00 NR -20.99 69.36
SI 12:00:00 NR -21.17 69.23
SI 15:00:00 NR -21.36 69.10
SI 18:00:00 NR -21.54 68.98
SI 21:00:00 NR -21.73 68.86
SI 1875-01-18 00:00:00 NR -21.82 68.79
SI 03:00:00 NR -21.88 68.75
SI 06:00:00 NR -21.88 68.74
SI 09:00:00 NR -21.79 68.76
SI 12:00:00 NR -21.98 68.61
SI 15:00:00 NR -22.17 68.46
SI 18:00:00 NR -22.35 68.31
SI 21:00:00 NR -22.53 68.17
SI 1875-01-19 00:00:00 NR -22.70 68.04
SI 03:00:00 NR -22.85 67.91
SI 06:00:00 NR -23.00 67.80
SI 09:00:00 NR -23.13 67.70
SI 12:00:00 NR -23.25 67.62
SI 15:00:00 NR -23.36 67.55
SI 18:00:00 NR -23.46 67.49
SI 21:00:00 NR -23.55 67.43
SI 1875-01-20 00:00:00 NR -23.64 67.39
SI 03:00:00 NR -23.72 67.34
SI 06:00:00 NR -23.80 67.30

Source Information

Agency Information
USA
TOKYO
CMA
HKO
NEWDELHI
REUNION WMO-Best-Tracks.txt:Line=1063:xxxx875154
BOM
NADI
WELLINGTON
DS824
TD9636 cons_worldwide_trop_cyclone_18710101-19891231-005:Line=1435
TD9635
NEUMANN
MLC

All available IBTrACS Data

SEASON BASIN SUBBASIN ISO_TIME_________ NATURE LAT LON WMO AGENCY DIST2LAND LANDFALL IFLAG USA SSHS REUNION LAT REUNION LON REUNION TYPE REUNION TNUM TD9636 LAT TD9636 LON TD9636 STAGE STORM SPEED STORM DIR
Year degrees north degrees east km km 1 degrees north degrees east 1 degrees north degrees east kts degrees
1875 SI MM 1875-01-11 06:00:00 NR -13.70 75.95 reunion 2069 2055 _____O____O___ -1 -13.30 76.30 99 9.90 -14.10 75.60 7 3 223
1875 SI MM 09:00:00 NR -13.81 75.84 2045 2031 _____P____P___ -1 -13.42 76.20 99 -14.20 75.49 7 3 223
1875 SI MM 12:00:00 NR -13.92 75.74 2031 2017 _____P____P___ -1 -13.54 76.09 99 -14.30 75.39 7 3 222
1875 SI MM 15:00:00 NR -14.03 75.64 2017 2002 _____P____P___ -1 -13.65 75.99 99 -14.40 75.29 7 3 221
1875 SI MM 18:00:00 NR -14.14 75.54 2002 1998 _____P____O___ -1 -13.77 75.89 99 -14.50 75.20 7 3 219
1875 SI MM 21:00:00 NR -14.25 75.45 1998 1984 _____P____P___ -1 -13.88 75.79 99 -14.61 75.12 7 3 219
1875 SI MM 1875-01-12 00:00:00 NR -14.35 75.37 1979 1965 _____P____P___ -1 -13.99 75.69 99 -14.71 75.04 7 3 217
1875 SI MM 03:00:00 NR -14.46 75.28 1965 1955 _____P____P___ -1 -14.10 75.59 99 -14.81 74.97 7 3 219
1875 SI MM 06:00:00 NR -14.55 75.20 reunion 1955 1941 _____O____O___ -1 -14.20 75.50 99 9.90 -14.90 74.90 7 2 223
1875 SI MM 09:00:00 NR -14.63 75.12 1941 1927 _____P____P___ -1 -14.30 75.41 99 -14.96 74.83 7 2 226
1875 SI MM 12:00:00 NR -14.69 75.04 1927 1923 _____P____P___ -1 -14.39 75.32 99 -15.00 74.76 7 2 229
1875 SI MM 15:00:00 NR -14.76 74.96 1923 1913 _____P____P___ -1 -14.48 75.24 99 -15.04 74.68 7 2 229
1875 SI MM 18:00:00 NR -14.83 74.87 1913 1899 _____P____O___ -1 -14.56 75.15 99 -15.10 74.60 7 2 227
1875 SI MM 21:00:00 NR -14.92 74.78 1899 1885 _____P____P___ -1 -14.65 75.06 99 -15.19 74.50 7 3 226
1875 SI MM 1875-01-13 00:00:00 NR -15.01 74.69 1885 1871 _____P____P___ -1 -14.73 74.98 99 -15.29 74.40 7 3 225
1875 SI MM 03:00:00 NR -15.10 74.59 1871 1857 _____P____P___ -1 -14.82 74.89 99 -15.39 74.30 7 3 223
1875 SI MM 06:00:00 NR -15.20 74.50 reunion 1857 1843 _____O____O___ -1 -14.90 74.80 99 9.90 -15.50 74.20 7 3 223
1875 SI MM 09:00:00 NR -15.29 74.41 1843 1829 _____P____P___ -1 -14.99 74.70 99 -15.60 74.12 7 3 222
1875 SI MM 12:00:00 NR -15.39 74.33 1829 1815 _____P____P___ -1 -15.07 74.60 99 -15.70 74.05 7 3 222
1875 SI MM 15:00:00 NR -15.48 74.24 1815 1811 _____P____P___ -1 -15.16 74.50 99 -15.80 73.98 7 3 222
1875 SI MM 18:00:00 NR -15.57 74.15 1801 1801 _____P____O___ -1 -15.24 74.40 99 -15.90 73.90 7 2 224
1875 SI MM 21:00:00 NR -15.65 74.06 1798 1787 _____P____P___ -1 -15.33 74.30 99 -15.98 73.83 7 2 225
1875 SI MM 1875-01-14 00:00:00 NR -15.74 73.97 1787 1774 _____P____P___ -1 -15.42 74.20 99 -16.06 73.74 7 3 226
1875 SI MM 03:00:00 NR -15.84 73.87 1774 1760 _____P____P___ -1 -15.51 74.10 99 -16.16 73.64 7 3 225
1875 SI MM 06:00:00 NR -15.95 73.75 reunion 1760 1733 _____O____O___ -1 -15.60 74.00 99 9.90 -16.30 73.50 7 3 224
1875 SI MM 09:00:00 NR -16.08 73.62 1733 1719 _____P____P___ -1 -15.68 73.93 99 -16.49 73.31 7 4 224
1875 SI MM 12:00:00 NR -16.23 73.47 1719 1692 _____P____P___ -1 -15.75 73.86 99 -16.71 73.08 7 4 223
1875 SI MM 15:00:00 NR -16.39 73.31 1692 1678 _____P____P___ -1 -15.83 73.79 99 -16.95 72.84 7 4 222
1875 SI MM 18:00:00 NR -16.56 73.16 1675 1651 _____P____O___ -1 -15.92 73.72 99 -17.20 72.60 7 4 220
1875 SI MM 21:00:00 NR -16.73 73.01 1651 1635 _____P____P___ -1 -16.01 73.64 99 -17.45 72.39 7 5 218
1875 SI MM 1875-01-15 00:00:00 NR -16.91 72.87 1635 1609 _____P____P___ -1 -16.12 73.54 99 -17.70 72.19 7 5 218
1875 SI MM 03:00:00 NR -17.10 72.71 1609 1593 _____P____P___ -1 -16.25 73.43 99 -17.95 72.00 7 5 218
1875 SI MM 06:00:00 NR -17.30 72.55 reunion 1593 1566 _____O____O___ -1 -16.40 73.30 99 9.90 -18.20 71.80 7 5 219
1875 SI MM 09:00:00 NR -17.50 72.37 1566 1541 _____P____P___ -1 -16.58 73.13 99 -18.43 71.60 7 5 221
1875 SI MM 12:00:00 NR -17.71 72.18 1541 1515 _____P____P___ -1 -16.77 72.95 99 -18.65 71.41 7 6 221
1875 SI MM 15:00:00 NR -17.93 71.98 1515 1490 _____P____P___ -1 -16.99 72.74 99 -18.87 71.21 7 6 221
1875 SI MM 18:00:00 NR -18.16 71.76 1487 1452 _____P____O___ -1 -17.22 72.53 99 -19.10 71.00 7 6 222
1875 SI MM 21:00:00 NR -18.40 71.53 1452 1427 _____P____P___ -1 -17.46 72.30 99 -19.35 70.77 7 7 222
1875 SI MM 1875-01-16 00:00:00 NR -18.66 71.30 1425 1401 _____P____P___ -1 -17.70 72.07 99 -19.61 70.53 7 7 221
1875 SI MM 03:00:00 NR -18.91 71.07 1401 1377 _____P____P___ -1 -17.95 71.83 99 -19.86 70.30 7 7 220
1875 SI MM 06:00:00 NR -19.15 70.85 reunion 1377 1352 _____O____O___ -1 -18.20 71.60 99 9.90 -20.10 70.10 7 6 219
1875 SI MM 09:00:00 NR -19.38 70.66 1352 1329 _____P____P___ -1 -18.44 71.37 99 -20.32 69.95 7 6 217
1875 SI MM 12:00:00 NR -19.61 70.48 1329 1306 _____P____P___ -1 -18.68 71.15 99 -20.53 69.82 7 6 216
1875 SI MM 15:00:00 NR -19.83 70.31 1306 1294 _____P____P___ -1 -18.93 70.92 99 -20.72 69.71 7 5 216
1875 SI MM 18:00:00 NR -20.04 70.15 1284 1272 _____P____O___ -1 -19.17 70.70 99 -20.90 69.60 7 5 218
1875 SI MM 21:00:00 NR -20.24 69.98 1272 1250 _____P____P___ -1 -19.41 70.48 99 -21.06 69.47 7 5 219
1875 SI MM 1875-01-17 00:00:00 NR -20.43 69.81 1250 1239 _____P____P___ -1 -19.65 70.28 99 -21.21 69.35 7 5 219
1875 SI MM 03:00:00 NR -20.62 69.65 1239 1218 _____P____P___ -1 -19.88 70.08 99 -21.35 69.22 7 5 218
1875 SI MM 06:00:00 NR -20.80 69.50 reunion 1219 1208 _____O____O___ -1 -20.10 69.90 99 9.90 -21.50 69.10 7 5 217
1875 SI MM 09:00:00 NR -20.99 69.36 1209 1188 _____P____P___ -1 -20.31 69.74 99 -21.66 68.97 7 5 215
1875 SI MM 12:00:00 NR -21.17 69.23 1189 1179 _____P____P___ -1 -20.51 69.60 99 -21.83 68.85 7 4 213
1875 SI MM 15:00:00 NR -21.36 69.10 1180 1169 _____P____P___ -1 -20.70 69.47 99 -22.01 68.72 7 4 212
1875 SI MM 18:00:00 NR -21.54 68.98 1170 1161 _____P____O___ -1 -20.89 69.35 99 -22.20 68.60 7 4 211
1875 SI MM 21:00:00 NR -21.73 68.86 1162 1152 _____P____P___ -1 -21.07 69.24 99 -22.39 68.48 7 3 211
1875 SI MM 1875-01-18 00:00:00 NR -21.82 68.79 1153 1153 _____P____P___ -1 -21.25 69.13 99 -22.59 68.35 7 2 212
1875 SI MM 03:00:00 NR -21.88 68.75 1154 1144 _____P____P___ -1 -21.42 69.02 99 -22.80 68.23 7 1 225
1875 SI MM 06:00:00 NR -21.88 68.74 reunion 1144 1143 _____O____O___ -1 -21.60 68.90 99 9.90 -23.00 68.10 7 1 0
1875 SI MM 09:00:00 NR -21.79 68.76 1153 1134 _____P________ -1 -21.79 68.76 99 7 2 231
1875 SI MM 12:00:00 NR -21.98 68.61 1135 1126 _____P________ -1 -21.98 68.61 99 7 5 216
1875 SI MM 15:00:00 NR -22.17 68.46 1128 1110 _____P________ -1 -22.17 68.46 99 7 5 216
1875 SI MM 18:00:00 NR -22.35 68.31 1111 1101 _____P________ -1 -22.35 68.31 99 4 217
1875 SI MM 21:00:00 NR -22.53 68.17 1103 1088 _____P________ -1 -22.53 68.17 99 4 217
1875 SI MM 1875-01-19 00:00:00 NR -22.70 68.04 1088 1080 _____P________ -1 -22.70 68.04 99 4 217
1875 SI MM 03:00:00 NR -22.85 67.91 1083 1073 _____P________ -1 -22.85 67.91 99 4 216
1875 SI MM 06:00:00 NR -23.00 67.80 reunion 1076 1069 _____O________ -1 -23.00 67.80 99 9.90 3 215
1875 SI MM 09:00:00 NR -23.13 67.70 1069 1062 _____P________ -1 -23.13 67.70 99 3 214
1875 SI MM 12:00:00 NR -23.25 67.62 1065 1065 _____P________ -1 -23.25 67.62 99 3 212
1875 SI MM 15:00:00 NR -23.36 67.55 1058 1058 _____P________ -1 -23.36 67.55 99 2 211
1875 SI MM 18:00:00 NR -23.46 67.49 1062 1052 _____P________ -1 -23.46 67.49 99 2 208
1875 SI MM 21:00:00 NR -23.55 67.43 1052 1052 _____P________ -1 -23.55 67.43 99 2 208
1875 SI MM 1875-01-20 00:00:00 NR -23.64 67.39 1055 1049 _____P________ -1 -23.64 67.39 99 2 204
1875 SI MM 03:00:00 NR -23.72 67.34 1049 1049 _____P________ -1 -23.72 67.34 99 2 205
1875 SI MM 06:00:00 NR -23.80 67.30 reunion 1053 _____O________ -1 -23.80 67.30 99 9.90 2 203